createdAt,value
2019-02-19T00:00:26.957Z,46.70
2019-02-19T00:02:57.317Z,49.80
2019-02-19T00:05:27.692Z,48.67
2019-02-19T00:07:58.071Z,51.73
2019-02-19T00:10:28.408Z,53.33
2019-02-19T00:12:58.808Z,49.73
2019-02-19T00:15:29.165Z,51.90
2019-02-19T00:17:59.637Z,48.80
2019-02-19T00:20:30.000Z,46.13
2019-02-19T00:23:00.468Z,47.50
2019-02-19T00:25:30.797Z,47.07
2019-02-19T00:28:01.278Z,49.97
2019-02-19T00:30:31.627Z,42.90
2019-02-19T00:33:02.019Z,49.60
2019-02-19T00:35:32.363Z,46.27
2019-02-19T00:38:02.740Z,47.83
2019-02-19T00:40:33.113Z,48.13
2019-02-19T00:43:03.620Z,50.63
2019-02-19T00:45:33.977Z,53.80
2019-02-19T00:48:04.397Z,49.70
2019-02-19T00:50:34.741Z,53.13
2019-02-19T00:53:05.141Z,49.67
2019-02-19T00:55:35.494Z,48.80
2019-02-19T00:58:05.872Z,52.60
2019-02-19T01:00:36.233Z,55.73
2019-02-19T01:03:06.705Z,48.97
2019-02-19T01:05:37.056Z,46.23
2019-02-19T01:08:07.447Z,52.43
2019-02-19T01:10:37.861Z,53.10
2019-02-19T01:13:08.258Z,45.60
2019-02-19T01:15:38.597Z,51.50
2019-02-19T01:18:09.201Z,47.10
2019-02-19T01:20:39.537Z,48.80
2019-02-19T01:23:09.908Z,53.10
2019-02-19T01:25:41.309Z,52.27
2019-02-19T01:28:11.664Z,50.23
2019-02-19T01:30:42.001Z,51.87
2019-02-19T01:33:12.445Z,47.57
2019-02-19T01:35:42.778Z,53.43
2019-02-19T01:38:13.236Z,55.43
2019-02-19T01:40:43.570Z,56.27
2019-02-19T01:43:14.221Z,51.10
2019-02-19T01:45:44.543Z,53.10
2019-02-19T01:48:14.901Z,44.03
2019-02-19T01:50:45.227Z,49.20
2019-02-19T01:53:15.631Z,57.20
2019-02-19T01:55:45.937Z,49.33
2019-02-19T01:58:16.284Z,45.73
2019-02-19T02:00:46.616Z,44.97
2019-02-19T02:03:16.973Z,44.67
2019-02-19T02:05:47.305Z,50.70
2019-02-19T02:08:17.672Z,61.10
2019-02-19T02:10:48.025Z,45.37
2019-02-19T02:13:18.366Z,47.30
2019-02-19T02:15:49.514Z,50.70
2019-02-19T02:18:19.852Z,45.53
2019-02-19T02:23:22.975Z,53.63
2019-02-19T02:25:53.409Z,59.07
2019-02-19T02:28:23.742Z,54.77
2019-02-19T02:30:54.130Z,49.70
2019-02-19T02:33:24.467Z,46.93
2019-02-19T02:35:54.924Z,56.97
2019-02-19T02:38:25.252Z,49.00
2019-02-19T02:40:56.703Z,47.50
2019-02-19T02:43:27.080Z,43.83
2019-02-19T02:45:57.454Z,50.67
2019-02-19T02:48:27.782Z,49.23
2019-02-19T02:50:58.526Z,50.73
2019-02-19T02:53:28.863Z,50.83
2019-02-19T02:55:59.237Z,50.23
2019-02-19T02:58:29.569Z,49.37
2019-02-19T03:00:59.942Z,46.83
2019-02-19T03:03:30.282Z,46.50
2019-02-19T03:06:24.293Z,43.33
2019-02-19T03:08:54.634Z,50.10
2019-02-19T03:11:25.050Z,52.40
2019-02-19T03:13:55.386Z,46.77
2019-02-19T03:16:25.749Z,48.23
2019-02-19T03:18:56.120Z,51.13
2019-02-19T03:21:26.445Z,51.13
2019-02-19T03:23:56.797Z,43.57
2019-02-19T03:26:27.451Z,49.03
2019-02-19T03:28:57.816Z,45.83
2019-02-19T03:31:29.225Z,47.40
2019-02-19T03:33:59.617Z,48.20
2019-02-19T03:36:29.928Z,48.27
2019-02-19T03:39:00.309Z,46.10
2019-02-19T03:41:30.633Z,45.53
2019-02-19T03:44:01.072Z,50.73
2019-02-19T03:46:31.390Z,51.83
2019-02-19T03:49:01.743Z,42.07
2019-02-19T03:51:32.134Z,45.27
2019-02-19T03:54:02.434Z,45.73
2019-02-19T03:56:32.797Z,53.00
2019-02-19T03:59:03.125Z,43.33
2019-02-19T04:01:33.584Z,46.27
2019-02-19T04:04:03.942Z,45.67
2019-02-19T04:06:34.293Z,45.47
2019-02-19T04:09:05.617Z,47.93
2019-02-19T04:11:35.981Z,38.00
2019-02-19T04:14:06.310Z,50.63
2019-02-19T04:16:36.670Z,49.10
2019-02-19T04:19:07.026Z,42.83
2019-02-19T04:21:37.392Z,42.90
2019-02-19T04:24:07.736Z,41.67
2019-02-19T04:26:38.183Z,45.87
2019-02-19T04:29:08.525Z,44.33
2019-02-19T04:31:38.881Z,37.27
2019-02-19T04:34:09.222Z,40.27
2019-02-19T04:36:39.617Z,41.80
2019-02-19T04:39:09.983Z,40.27
2019-02-19T04:41:40.334Z,37.87
2019-02-19T04:44:10.733Z,41.83
2019-02-19T04:46:41.082Z,37.47
2019-02-19T04:49:11.414Z,41.40
2019-02-19T04:51:41.771Z,36.07
2019-02-19T04:54:12.117Z,37.63
2019-02-19T04:56:42.444Z,33.70
2019-02-19T04:59:12.803Z,40.13
2019-02-19T05:01:43.134Z,41.07
2019-02-19T05:04:13.493Z,34.30
2019-02-19T05:06:43.832Z,34.30
2019-02-19T05:09:14.179Z,34.20
2019-02-19T05:11:44.504Z,31.83
2019-02-19T05:14:14.857Z,33.90
2019-02-19T05:16:45.188Z,33.87
2019-02-19T05:19:15.569Z,37.20
2019-02-19T05:21:45.939Z,32.97
2019-02-19T05:24:17.184Z,32.77
2019-02-19T05:26:47.514Z,31.27
2019-02-19T05:29:17.976Z,32.07
2019-02-19T05:31:48.306Z,38.30
2019-02-19T05:34:18.665Z,30.63
2019-02-19T05:36:49.154Z,35.23
2019-02-19T05:39:19.499Z,30.20
2019-02-19T05:41:49.841Z,34.23
2019-02-19T05:44:20.217Z,31.93
2019-02-19T05:46:50.582Z,33.37
2019-02-19T05:49:20.937Z,30.90
2019-02-19T05:51:51.649Z,31.90
2019-02-19T05:54:22.300Z,30.57
2019-02-19T05:56:53.012Z,31.70
2019-02-19T05:59:23.344Z,30.57
2019-02-19T06:01:53.692Z,31.93
2019-02-19T06:04:24.041Z,34.33
2019-02-19T06:06:54.400Z,33.23
2019-02-19T06:09:24.746Z,29.97
2019-02-19T06:11:55.144Z,31.27
2019-02-19T06:14:25.482Z,28.07
2019-02-19T06:16:58.551Z,25.80
2019-02-19T06:19:39.409Z,27.50
2019-02-19T06:22:09.781Z,30.97
2019-02-19T06:24:40.116Z,28.70
2019-02-19T06:27:10.557Z,29.37
2019-02-19T06:29:40.889Z,26.50
2019-02-19T06:32:11.257Z,28.80
2019-02-19T06:34:41.601Z,26.63
2019-02-19T06:37:11.969Z,28.63
2019-02-19T06:39:42.300Z,30.93
2019-02-19T06:42:12.648Z,27.97
2019-02-19T06:44:43.065Z,26.37
2019-02-19T06:47:13.533Z,22.30
2019-02-19T06:49:43.865Z,25.60
2019-02-19T06:52:14.236Z,25.03
2019-02-19T06:54:45.041Z,25.17
2019-02-19T06:57:15.417Z,24.83
2019-02-19T06:59:45.767Z,25.20
2019-02-19T07:02:25.639Z,24.07
2019-02-19T07:04:58.377Z,25.63
2019-02-19T07:07:28.852Z,26.70
2019-02-19T07:09:59.176Z,22.00
2019-02-19T07:12:48.585Z,22.23
2019-02-19T07:15:18.925Z,25.63
2019-02-19T07:17:49.289Z,26.27
2019-02-19T07:20:19.622Z,28.23
2019-02-19T07:22:50.069Z,28.17
2019-02-19T07:25:20.405Z,24.03
2019-02-19T07:27:50.775Z,24.03
2019-02-19T07:30:21.133Z,24.07
2019-02-19T07:32:51.453Z,24.93
2019-02-19T07:35:21.815Z,23.50
2019-02-19T07:37:52.145Z,26.70
2019-02-19T07:40:22.585Z,22.40
2019-02-19T07:42:52.944Z,23.90
2019-02-19T07:45:23.487Z,22.83
2019-02-19T07:47:53.877Z,23.83
2019-02-19T07:50:24.326Z,24.63
2019-02-19T07:52:54.661Z,28.40
2019-02-19T07:55:25.110Z,22.07
2019-02-19T07:57:55.425Z,23.10
2019-02-19T08:00:25.777Z,25.90
2019-02-19T08:02:56.130Z,19.10
2019-02-19T08:05:26.462Z,21.63
2019-02-19T08:07:56.821Z,22.23
2019-02-19T08:10:27.153Z,20.93
2019-02-19T08:12:57.516Z,20.23
2019-02-19T08:15:27.849Z,23.97
2019-02-19T08:17:58.314Z,19.93
2019-02-19T08:20:28.633Z,19.90
2019-02-19T08:23:00.085Z,20.17
2019-02-19T08:25:30.401Z,20.00
2019-02-19T08:28:00.765Z,22.30
2019-02-19T08:30:31.125Z,20.90
2019-02-19T08:33:01.506Z,23.10
2019-02-19T08:35:31.837Z,25.00
2019-02-19T08:38:02.304Z,22.53
2019-02-19T08:40:32.756Z,23.27
2019-02-19T08:43:03.121Z,24.80
2019-02-19T08:45:33.520Z,26.97
2019-02-19T08:48:03.877Z,25.50
2019-02-19T08:50:34.212Z,19.37
2019-02-19T08:53:04.570Z,22.47
2019-02-19T08:55:35.000Z,22.70
2019-02-19T08:58:05.361Z,19.20
2019-02-19T09:00:35.717Z,24.90
2019-02-19T09:03:06.063Z,23.20
2019-02-19T09:05:36.418Z,25.83
2019-02-19T09:08:06.745Z,27.23
2019-02-19T09:10:37.105Z,28.10
2019-02-19T09:13:07.441Z,24.57
2019-02-19T09:15:37.807Z,25.40
2019-02-19T09:18:08.149Z,25.17
2019-02-19T09:20:38.533Z,25.83
2019-02-19T09:23:08.861Z,26.97
2019-02-19T09:25:39.233Z,26.00
2019-02-19T09:28:09.561Z,25.07
2019-02-19T09:30:40.041Z,28.30
2019-02-19T09:33:10.369Z,26.53
2019-02-19T09:35:40.738Z,30.57
2019-02-19T09:38:11.098Z,28.63
2019-02-19T09:40:41.461Z,31.03
2019-02-19T09:43:11.850Z,32.00
2019-02-19T09:45:42.238Z,31.97
2019-02-19T09:48:12.594Z,31.33
2019-02-19T09:50:42.929Z,26.13
2019-02-19T09:53:13.665Z,29.97
2019-02-19T09:55:43.999Z,28.33
2019-02-19T09:58:14.377Z,30.97
2019-02-19T10:00:44.726Z,28.97
2019-02-19T10:03:15.677Z,32.53
2019-02-19T10:05:48.031Z,38.73
2019-02-19T10:08:18.053Z,33.27
2019-02-19T10:10:48.385Z,33.03
2019-02-19T10:13:18.736Z,34.50
2019-02-19T10:15:49.073Z,38.33
2019-02-19T10:18:19.455Z,33.50
2019-02-19T10:20:51.625Z,37.20
2019-02-19T10:23:21.781Z,37.97
2019-02-19T10:25:52.108Z,37.43
2019-02-19T10:28:22.561Z,36.37
2019-02-19T10:30:52.901Z,37.83
2019-02-19T10:33:23.352Z,38.20
2019-02-19T10:35:53.718Z,37.03
2019-02-19T10:38:24.084Z,32.63
2019-02-19T10:40:54.425Z,32.83
2019-02-19T10:43:24.802Z,34.77
2019-02-19T10:45:55.634Z,30.60
2019-02-19T10:48:25.970Z,30.33
2019-02-19T10:50:56.345Z,35.77
2019-02-19T10:53:27.743Z,27.40
2019-02-19T10:55:58.108Z,28.83
2019-02-19T10:58:28.448Z,27.60
2019-02-19T11:00:59.126Z,30.17
2019-02-19T11:03:29.465Z,31.10
2019-02-19T11:06:00.309Z,28.03
2019-02-19T11:08:30.647Z,28.70
2019-02-19T11:11:01.093Z,29.93
2019-02-19T11:13:31.774Z,24.60
2019-02-19T11:16:03.404Z,29.47
2019-02-19T11:18:33.882Z,25.90
2019-02-19T11:21:04.285Z,26.80
2019-02-19T11:23:34.627Z,26.10
2019-02-19T11:26:05.016Z,25.30
2019-02-19T11:28:35.349Z,28.03
2019-02-19T11:31:05.713Z,25.07
2019-02-19T11:33:36.073Z,27.63
2019-02-19T11:36:06.409Z,28.87
2019-02-19T11:38:36.761Z,26.50
2019-02-19T11:41:07.097Z,29.57
2019-02-19T11:43:37.457Z,30.93
2019-02-19T11:46:07.853Z,27.07
2019-02-19T11:48:38.299Z,25.50
2019-02-19T11:51:08.633Z,28.97
2019-02-19T11:53:38.993Z,25.83
2019-02-19T11:56:09.325Z,29.37
2019-02-19T11:58:39.689Z,27.23
2019-02-19T12:01:10.049Z,24.20
2019-02-19T12:03:40.459Z,27.63
2019-02-19T12:06:10.813Z,25.67
2019-02-19T12:08:41.205Z,24.67
2019-02-19T12:11:12.613Z,23.07
2019-02-19T12:13:42.978Z,24.93
2019-02-19T12:16:13.317Z,23.10
2019-02-19T12:18:46.136Z,26.87
2019-02-19T12:21:15.669Z,24.70
2019-02-19T12:23:46.122Z,25.17
2019-02-19T12:26:16.466Z,30.70
2019-02-19T12:28:47.986Z,22.30
2019-02-19T12:31:18.321Z,25.90
2019-02-19T12:33:48.684Z,24.50
2019-02-19T12:36:19.045Z,26.10
2019-02-19T12:38:49.378Z,28.30
2019-02-19T12:41:19.753Z,26.70
2019-02-19T12:43:51.051Z,24.10
2019-02-19T12:46:21.489Z,23.37
2019-02-19T12:48:54.708Z,23.40
2019-02-19T12:51:26.445Z,24.17
2019-02-19T12:53:56.617Z,24.60
2019-02-19T12:56:26.957Z,24.73
2019-02-19T12:58:57.325Z,29.50
2019-02-19T13:01:27.669Z,27.90
2019-02-19T13:03:58.049Z,26.07
2019-02-19T13:06:28.378Z,28.07
2019-02-19T13:08:58.943Z,22.40
2019-02-19T13:11:29.276Z,25.23
2019-02-19T13:13:59.636Z,26.70
2019-02-19T13:16:29.993Z,29.37
2019-02-19T13:19:03.427Z,25.47
2019-02-19T13:21:32.749Z,22.07
2019-02-19T13:24:03.090Z,26.40
2019-02-19T13:26:33.546Z,26.13
2019-02-19T13:29:03.887Z,24.80
2019-02-19T13:31:34.345Z,23.20
2019-02-19T13:34:04.685Z,27.43
2019-02-19T13:36:47.237Z,26.83
2019-02-19T13:39:29.298Z,24.73
2019-02-19T13:41:59.689Z,25.63
2019-02-19T13:44:30.022Z,20.33
2019-02-19T13:47:00.389Z,18.13
2019-02-19T13:49:31.113Z,21.47
2019-02-19T13:52:08.789Z,18.63
2019-02-19T13:54:48.443Z,19.13
2019-02-19T13:57:18.785Z,19.27
2019-02-19T13:59:49.184Z,15.63
2019-02-19T14:02:19.510Z,17.50
2019-02-19T14:04:50.030Z,21.50
2019-02-19T14:07:20.380Z,18.20
2019-02-19T14:09:50.773Z,22.23
2019-02-19T14:12:21.150Z,21.80
2019-02-19T14:14:56.397Z,20.43
2019-02-19T14:17:26.748Z,18.30
2019-02-19T14:20:04.949Z,16.50
2019-02-19T14:23:03.969Z,19.43
2019-02-19T14:26:02.486Z,21.60
2019-02-19T14:28:56.624Z,18.97
2019-02-19T14:31:49.102Z,21.70
2019-02-19T14:34:37.202Z,15.80
2019-02-19T14:37:33.734Z,19.27
2019-02-19T14:40:29.373Z,19.97
2019-02-19T14:43:24.906Z,19.70
2019-02-19T14:46:13.393Z,21.33
2019-02-19T14:48:56.293Z,17.43
2019-02-19T14:51:54.292Z,17.07
2019-02-19T14:54:46.675Z,15.53
2019-02-19T14:57:38.741Z,17.97
2019-02-19T15:00:28.301Z,17.33
2019-02-19T15:03:23.627Z,18.93
2019-02-19T15:06:31.085Z,18.20
2019-02-19T15:09:32.483Z,17.37
2019-02-19T15:12:33.713Z,18.77
2019-02-19T15:15:32.097Z,18.37
2019-02-19T15:18:20.521Z,16.80
2019-02-19T15:21:15.580Z,19.27
2019-02-19T15:24:04.636Z,16.17
2019-02-19T15:26:56.686Z,14.93
2019-02-19T15:29:46.125Z,13.90
2019-02-19T15:32:35.401Z,18.53
2019-02-19T15:35:25.433Z,14.83
2019-02-19T15:38:30.048Z,16.70
2019-02-19T15:41:18.329Z,17.27
2019-02-19T15:44:06.510Z,18.73
2019-02-19T15:46:58.597Z,18.77
2019-02-19T15:49:49.994Z,13.87
2019-02-19T15:52:43.145Z,15.87
2019-02-19T15:55:38.260Z,15.17
2019-02-19T15:58:25.393Z,19.47
2019-02-19T16:01:13.297Z,16.07
2019-02-19T16:04:02.736Z,17.43
2019-02-19T16:06:57.845Z,17.13
2019-02-19T16:09:49.141Z,14.70
2019-02-19T16:12:30.601Z,14.17
2019-02-19T16:15:14.301Z,13.80
2019-02-19T16:18:22.154Z,14.03
2019-02-19T16:21:07.359Z,19.07
2019-02-19T16:24:02.425Z,13.63
2019-02-19T16:26:43.874Z,17.23
2019-02-19T16:29:35.949Z,14.20
2019-02-19T16:32:23.518Z,14.37
2019-02-19T16:35:15.794Z,15.97
2019-02-19T16:38:03.361Z,12.90
2019-02-19T16:40:55.645Z,13.30
2019-02-19T16:43:43.101Z,12.33
2019-02-19T16:46:35.377Z,10.90
2019-02-19T16:49:11.549Z,14.27
2019-02-19T16:52:09.936Z,11.87
2019-02-19T16:54:45.792Z,11.03
2019-02-19T16:57:44.333Z,10.53
2019-02-19T17:00:20.429Z,9.83
2019-02-19T17:03:24.710Z,13.93
2019-02-19T17:06:10.486Z,12.83
2019-02-19T17:09:00.495Z,13.83
2019-02-19T17:11:59.053Z,10.70
2019-02-19T17:14:48.313Z,10.10
2019-02-19T17:17:37.625Z,15.10
2019-02-19T17:20:30.297Z,13.00
2019-02-19T17:23:09.557Z,17.87
2019-02-19T17:26:08.219Z,11.60
2019-02-19T17:28:57.518Z,12.13
2019-02-19T17:31:49.537Z,12.00
2019-02-19T17:34:36.339Z,16.03
2019-02-19T17:37:25.620Z,15.17
2019-02-19T17:40:27.059Z,16.40
2019-02-19T17:43:21.329Z,14.57
2019-02-19T17:46:14.069Z,11.80
2019-02-19T17:48:57.513Z,13.90
2019-02-19T17:51:49.749Z,14.20
2019-02-19T17:54:27.375Z,13.90
2019-02-19T17:57:32.012Z,15.40
2019-02-19T18:00:30.400Z,14.83
2019-02-19T18:03:35.233Z,17.10
2019-02-19T18:06:36.217Z,14.27
2019-02-19T18:09:16.330Z,10.63
2019-02-19T18:12:03.721Z,13.77
2019-02-19T18:14:52.329Z,10.53
2019-02-19T18:17:40.190Z,12.13
2019-02-19T18:20:10.553Z,10.20
2019-02-19T18:22:41.534Z,12.13
2019-02-19T18:25:11.901Z,9.57
2019-02-19T18:27:42.225Z,10.63
2019-02-19T18:30:12.582Z,11.20
2019-02-19T18:32:42.934Z,9.70
2019-02-19T18:35:13.389Z,11.90
2019-02-19T18:37:43.725Z,11.57
2019-02-19T18:40:14.085Z,11.43
2019-02-19T18:42:44.417Z,12.87
2019-02-19T18:45:14.787Z,9.37
2019-02-19T18:47:45.097Z,10.87
2019-02-19T18:50:15.513Z,8.27
2019-02-19T18:52:45.853Z,7.73
2019-02-19T18:55:16.202Z,10.10
2019-02-19T18:57:46.525Z,12.57
2019-02-19T19:00:17.231Z,10.83
2019-02-19T19:02:47.557Z,12.57
2019-02-19T19:05:17.933Z,8.60
2019-02-19T19:07:48.270Z,12.77
2019-02-19T19:10:18.629Z,13.33
2019-02-19T19:12:48.982Z,10.13
2019-02-19T19:15:19.352Z,14.10
2019-02-19T19:17:49.702Z,13.37
2019-02-19T19:20:20.029Z,14.57
2019-02-19T19:22:50.381Z,14.33
2019-02-19T19:25:20.718Z,14.40
2019-02-19T19:27:51.069Z,14.53
2019-02-19T19:30:21.401Z,14.37
2019-02-19T19:32:51.769Z,12.37
2019-02-19T19:35:22.103Z,10.33
2019-02-19T19:37:52.518Z,13.57
2019-02-19T19:40:22.845Z,16.97
2019-02-19T19:42:53.347Z,11.40
2019-02-19T19:45:23.677Z,14.77
2019-02-19T19:47:54.063Z,13.30
2019-02-19T19:50:24.413Z,15.50
2019-02-19T19:52:54.790Z,12.90
2019-02-19T19:55:25.560Z,11.37
2019-02-19T19:57:55.885Z,12.03
2019-02-19T20:00:26.337Z,12.80
2019-02-19T20:02:56.738Z,12.37
2019-02-19T20:05:27.101Z,9.60
2019-02-19T20:07:57.489Z,9.80
2019-02-19T20:10:27.858Z,12.50
2019-02-19T20:12:58.171Z,9.30
2019-02-19T20:15:28.525Z,11.63
2019-02-19T20:17:59.237Z,9.20
2019-02-19T20:20:30.022Z,8.77
2019-02-19T20:23:00.694Z,10.30
2019-02-19T20:25:31.075Z,11.63
2019-02-19T20:28:01.409Z,12.23
2019-02-19T20:30:31.893Z,9.43
2019-02-19T20:33:02.242Z,9.67
2019-02-19T20:35:32.597Z,11.13
2019-02-19T20:38:02.961Z,10.07
2019-02-19T20:40:33.294Z,14.87
2019-02-19T20:43:03.670Z,9.97
2019-02-19T20:45:34.397Z,8.97
2019-02-19T20:48:04.958Z,11.07
2019-02-19T20:50:35.440Z,9.90
2019-02-19T20:53:05.825Z,8.70
2019-02-19T20:55:37.414Z,10.87
2019-02-19T20:58:08.748Z,12.07
2019-02-19T21:00:39.074Z,9.50
2019-02-19T21:03:10.930Z,12.83
2019-02-19T21:05:41.342Z,11.23
2019-02-19T21:08:11.689Z,9.60
2019-02-19T21:10:42.041Z,14.93
2019-02-19T21:13:12.378Z,12.97
2019-02-19T21:15:42.914Z,11.50
2019-02-19T21:18:14.726Z,9.90
2019-02-19T21:20:45.153Z,11.43
2019-02-19T21:23:15.656Z,11.77
2019-02-19T21:25:46.128Z,12.53
2019-02-19T21:28:16.745Z,11.77
2019-02-19T21:30:47.590Z,14.50
2019-02-19T21:33:17.989Z,14.30
2019-02-19T21:35:48.396Z,15.67
2019-02-19T21:38:18.725Z,13.07
2019-02-19T21:40:49.102Z,13.53
2019-02-19T21:43:19.457Z,12.00
2019-02-19T21:45:50.256Z,15.07
2019-02-19T21:48:20.657Z,12.03
2019-02-19T21:50:51.389Z,16.97
2019-02-19T21:53:22.393Z,13.83
2019-02-19T21:55:52.761Z,12.23
2019-02-19T21:58:23.095Z,13.77
2019-02-19T22:00:54.707Z,13.73
2019-02-19T22:03:25.105Z,12.17
2019-02-19T22:05:55.554Z,13.33
2019-02-19T22:08:25.993Z,11.70
2019-02-19T22:10:56.669Z,15.97
2019-02-19T22:13:27.073Z,14.87
2019-02-19T22:15:57.513Z,18.03
2019-02-19T22:18:27.845Z,17.67
2019-02-19T22:21:16.045Z,13.13
2019-02-19T22:23:46.383Z,13.93
2019-02-19T22:26:16.729Z,14.43
2019-02-19T22:28:47.078Z,14.73
2019-02-19T22:31:17.436Z,13.67
2019-02-19T22:33:47.751Z,14.23
2019-02-19T22:36:18.198Z,15.57
2019-02-19T22:38:48.560Z,12.10
2019-02-19T22:41:19.609Z,12.13
2019-02-19T22:43:49.941Z,14.53
2019-02-19T22:46:20.316Z,11.07
2019-02-19T22:48:50.638Z,16.73
2019-02-19T22:51:21.036Z,13.93
2019-02-19T22:54:01.521Z,13.20
2019-02-19T22:56:34.801Z,15.73
2019-02-19T22:59:05.132Z,17.20
2019-02-19T23:01:38.797Z,19.20
2019-02-19T23:04:09.201Z,14.77
2019-02-19T23:06:39.660Z,13.37
2019-02-19T23:09:10.277Z,20.77
2019-02-19T23:11:40.794Z,15.10
2019-02-19T23:14:11.113Z,12.57
2019-02-19T23:16:41.561Z,13.90
2019-02-19T23:19:11.956Z,13.27
2019-02-19T23:21:42.334Z,15.73
2019-02-19T23:24:12.653Z,16.83
2019-02-19T23:26:43.089Z,18.50
2019-02-19T23:29:13.428Z,19.23
2019-02-19T23:31:44.219Z,18.67
2019-02-19T23:34:14.541Z,18.47
2019-02-19T23:36:50.961Z,21.77
2019-02-19T23:39:21.277Z,17.17
2019-02-19T23:41:52.029Z,16.40
2019-02-19T23:44:22.377Z,16.50
2019-02-19T23:46:52.730Z,19.17
2019-02-19T23:49:23.057Z,19.07
2019-02-19T23:51:53.462Z,16.50
2019-02-19T23:54:23.793Z,18.10
2019-02-19T23:56:55.217Z,17.57
2019-02-19T23:59:25.841Z,18.90
